sensor_id;sensor_type;location;lat;lon;timestamp;temperature;humidity
31542;DHT22;18152;49.986;8.646;2022-08-16T00:01:45;18.30;99.90
31542;DHT22;18152;49.986;8.646;2022-08-16T00:04:11;18.30;99.90
31542;DHT22;18152;49.986;8.646;2022-08-16T00:06:37;18.30;99.90
31542;DHT22;18152;49.986;8.646;2022-08-16T00:09:04;18.30;99.90
31542;DHT22;18152;49.986;8.646;2022-08-16T00:11:29;18.20;99.90
31542;DHT22;18152;49.986;8.646;2022-08-16T00:13:56;18.20;99.90
31542;DHT22;18152;49.986;8.646;2022-08-16T00:16:23;18.20;99.90
31542;DHT22;18152;49.986;8.646;2022-08-16T00:18:49;18.10;99.90
31542;DHT22;18152;49.986;8.646;2022-08-16T00:21:15;18.10;99.90
31542;DHT22;18152;49.986;8.646;2022-08-16T00:23:41;18.10;99.90
31542;DHT22;18152;49.986;8.646;2022-08-16T00:26:06;18.10;99.90
31542;DHT22;18152;49.986;8.646;2022-08-16T00:28:32;18.00;99.90
31542;DHT22;18152;49.986;8.646;2022-08-16T00:30:58;18.00;99.90
31542;DHT22;18152;49.986;8.646;2022-08-16T00:33:23;18.00;99.90
31542;DHT22;18152;49.986;8.646;2022-08-16T00:35:49;18.00;99.90
31542;DHT22;18152;49.986;8.646;2022-08-16T00:38:14;18.00;99.90
31542;DHT22;18152;49.986;8.646;2022-08-16T00:40:51;18.00;99.90
31542;DHT22;18152;49.986;8.646;2022-08-16T00:43:24;18.00;99.90
31542;DHT22;18152;49.986;8.646;2022-08-16T00:48:34;18.00;99.90
31542;DHT22;18152;49.986;8.646;2022-08-16T00:51:02;17.90;99.90
31542;DHT22;18152;49.986;8.646;2022-08-16T00:53:28;17.90;99.90
31542;DHT22;18152;49.986;8.646;2022-08-16T00:55:58;17.90;99.90
31542;DHT22;18152;49.986;8.646;2022-08-16T00:58:28;17.90;99.90
31542;DHT22;18152;49.986;8.646;2022-08-16T01:00:54;17.90;99.90
31542;DHT22;18152;49.986;8.646;2022-08-16T01:03:22;17.90;99.90
31542;DHT22;18152;49.986;8.646;2022-08-16T01:05:48;17.90;99.90
31542;DHT22;18152;49.986;8.646;2022-08-16T01:08:16;17.90;99.90
31542;DHT22;18152;49.986;8.646;2022-08-16T01:10:43;17.80;99.90
31542;DHT22;18152;49.986;8.646;2022-08-16T01:13:13;17.80;99.90
31542;DHT22;18152;49.986;8.646;2022-08-16T01:15:43;17.80;99.90
31542;DHT22;18152;49.986;8.646;2022-08-16T01:18:14;17.80;99.90
31542;DHT22;18152;49.986;8.646;2022-08-16T01:20:47;17.70;99.90
31542;DHT22;18152;49.986;8.646;2022-08-16T01:23:50;17.80;99.90
31542;DHT22;18152;49.986;8.646;2022-08-16T01:26:18;17.70;99.90
31542;DHT22;18152;49.986;8.646;2022-08-16T01:28:44;17.70;99.90
31542;DHT22;18152;49.986;8.646;2022-08-16T01:31:10;17.60;99.90
31542;DHT22;18152;49.986;8.646;2022-08-16T01:33:37;17.60;99.90
31542;DHT22;18152;49.986;8.646;2022-08-16T01:36:08;17.60;99.90
31542;DHT22;18152;49.986;8.646;2022-08-16T01:38:43;17.50;99.90
31542;DHT22;18152;49.986;8.646;2022-08-16T01:41:15;17.50;99.90
31542;DHT22;18152;49.986;8.646;2022-08-16T01:43:43;17.50;99.90
31542;DHT22;18152;49.986;8.646;2022-08-16T01:46:29;17.50;99.90
31542;DHT22;18152;49.986;8.646;2022-08-16T01:48:58;17.40;99.90
31542;DHT22;18152;49.986;8.646;2022-08-16T01:51:25;17.40;99.90
31542;DHT22;18152;49.986;8.646;2022-08-16T01:53:51;17.40;99.90
31542;DHT22;18152;49.986;8.646;2022-08-16T01:56:18;17.30;99.90
31542;DHT22;18152;49.986;8.646;2022-08-16T01:58:44;17.30;99.90
31542;DHT22;18152;49.986;8.646;2022-08-16T02:01:10;17.20;99.90
31542;DHT22;18152;49.986;8.646;2022-08-16T02:03:36;17.10;99.90
31542;DHT22;18152;49.986;8.646;2022-08-16T02:06:02;17.00;99.90
31542;DHT22;18152;49.986;8.646;2022-08-16T02:08:28;16.90;99.90
31542;DHT22;18152;49.986;8.646;2022-08-16T02:10:54;16.90;99.90
31542;DHT22;18152;49.986;8.646;2022-08-16T02:13:20;16.90;99.90
31542;DHT22;18152;49.986;8.646;2022-08-16T02:15:46;16.80;99.90
31542;DHT22;18152;49.986;8.646;2022-08-16T02:18:12;16.80;99.90
31542;DHT22;18152;49.986;8.646;2022-08-16T02:20:40;16.80;99.90
31542;DHT22;18152;49.986;8.646;2022-08-16T02:23:07;16.70;99.90
31542;DHT22;18152;49.986;8.646;2022-08-16T02:25:33;16.70;99.90
31542;DHT22;18152;49.986;8.646;2022-08-16T02:27:59;16.70;99.90
31542;DHT22;18152;49.986;8.646;2022-08-16T02:30:27;16.60;99.90
31542;DHT22;18152;49.986;8.646;2022-08-16T02:32:53;16.50;99.90
31542;DHT22;18152;49.986;8.646;2022-08-16T02:35:20;16.50;99.90
31542;DHT22;18152;49.986;8.646;2022-08-16T02:37:46;16.60;99.90
31542;DHT22;18152;49.986;8.646;2022-08-16T02:40:13;16.50;99.90
31542;DHT22;18152;49.986;8.646;2022-08-16T02:42:44;16.50;99.90
31542;DHT22;18152;49.986;8.646;2022-08-16T02:45:10;16.50;99.90
31542;DHT22;18152;49.986;8.646;2022-08-16T02:47:36;16.50;99.90
31542;DHT22;18152;49.986;8.646;2022-08-16T02:50:02;16.40;99.90
31542;DHT22;18152;49.986;8.646;2022-08-16T02:52:28;16.40;99.90
31542;DHT22;18152;49.986;8.646;2022-08-16T02:54:53;16.30;99.90
31542;DHT22;18152;49.986;8.646;2022-08-16T02:57:19;16.30;99.90
31542;DHT22;18152;49.986;8.646;2022-08-16T02:59:45;16.30;99.90
31542;DHT22;18152;49.986;8.646;2022-08-16T03:02:10;16.20;99.90
31542;DHT22;18152;49.986;8.646;2022-08-16T03:04:38;16.10;99.90
31542;DHT22;18152;49.986;8.646;2022-08-16T03:07:04;16.10;99.90
31542;DHT22;18152;49.986;8.646;2022-08-16T03:09:31;16.10;99.90
31542;DHT22;18152;49.986;8.646;2022-08-16T03:11:57;16.00;99.90
31542;DHT22;18152;49.986;8.646;2022-08-16T03:14:22;16.00;99.90
31542;DHT22;18152;49.986;8.646;2022-08-16T03:16:48;15.90;99.90
31542;DHT22;18152;49.986;8.646;2022-08-16T03:19:13;16.00;99.90
31542;DHT22;18152;49.986;8.646;2022-08-16T03:21:39;15.90;99.90
31542;DHT22;18152;49.986;8.646;2022-08-16T03:24:06;15.90;99.90
31542;DHT22;18152;49.986;8.646;2022-08-16T03:26:32;15.90;99.90
31542;DHT22;18152;49.986;8.646;2022-08-16T03:28:57;16.00;99.90
31542;DHT22;18152;49.986;8.646;2022-08-16T03:31:23;16.00;99.90
31542;DHT22;18152;49.986;8.646;2022-08-16T03:33:49;15.90;99.90
31542;DHT22;18152;49.986;8.646;2022-08-16T03:36:15;15.90;99.90
31542;DHT22;18152;49.986;8.646;2022-08-16T03:38:41;16.00;99.90
31542;DHT22;18152;49.986;8.646;2022-08-16T03:41:07;15.90;99.90
31542;DHT22;18152;49.986;8.646;2022-08-16T03:43:33;15.90;99.90
31542;DHT22;18152;49.986;8.646;2022-08-16T03:45:59;15.90;99.90
31542;DHT22;18152;49.986;8.646;2022-08-16T03:48:28;15.90;99.90
31542;DHT22;18152;49.986;8.646;2022-08-16T03:50:54;15.90;99.90
31542;DHT22;18152;49.986;8.646;2022-08-16T03:53:20;16.00;99.90
31542;DHT22;18152;49.986;8.646;2022-08-16T03:55:46;15.90;99.90
31542;DHT22;18152;49.986;8.646;2022-08-16T03:58:11;15.80;99.90
31542;DHT22;18152;49.986;8.646;2022-08-16T04:00:37;15.80;99.90
31542;DHT22;18152;49.986;8.646;2022-08-16T04:03:04;15.80;99.90
31542;DHT22;18152;49.986;8.646;2022-08-16T04:05:35;15.80;99.90
31542;DHT22;18152;49.986;8.646;2022-08-16T04:08:02;15.70;99.90
31542;DHT22;18152;49.986;8.646;2022-08-16T04:10:28;15.70;99.90
31542;DHT22;18152;49.986;8.646;2022-08-16T04:12:56;15.70;99.90
31542;DHT22;18152;49.986;8.646;2022-08-16T04:15:21;15.70;99.90
31542;DHT22;18152;49.986;8.646;2022-08-16T04:17:47;15.70;99.90
31542;DHT22;18152;49.986;8.646;2022-08-16T04:20:13;15.70;99.90
31542;DHT22;18152;49.986;8.646;2022-08-16T04:22:39;15.70;99.90
31542;DHT22;18152;49.986;8.646;2022-08-16T04:25:06;15.70;99.90
31542;DHT22;18152;49.986;8.646;2022-08-16T04:27:32;15.70;99.90
31542;DHT22;18152;49.986;8.646;2022-08-16T04:29:59;15.70;99.90
31542;DHT22;18152;49.986;8.646;2022-08-16T04:32:25;15.70;99.90
31542;DHT22;18152;49.986;8.646;2022-08-16T04:34:50;15.70;99.90
31542;DHT22;18152;49.986;8.646;2022-08-16T04:37:16;15.70;99.90
31542;DHT22;18152;49.986;8.646;2022-08-16T04:39:42;15.60;99.90
31542;DHT22;18152;49.986;8.646;2022-08-16T04:42:08;15.60;99.90
31542;DHT22;18152;49.986;8.646;2022-08-16T04:44:33;15.60;99.90
31542;DHT22;18152;49.986;8.646;2022-08-16T04:46:59;15.60;99.90
31542;DHT22;18152;49.986;8.646;2022-08-16T04:49:25;15.60;99.90
31542;DHT22;18152;49.986;8.646;2022-08-16T04:51:51;15.60;99.90
31542;DHT22;18152;49.986;8.646;2022-08-16T04:54:17;15.70;99.90
31542;DHT22;18152;49.986;8.646;2022-08-16T04:56:43;15.70;99.90
31542;DHT22;18152;49.986;8.646;2022-08-16T04:59:08;15.80;99.90
31542;DHT22;18152;49.986;8.646;2022-08-16T05:01:35;15.80;99.90
31542;DHT22;18152;49.986;8.646;2022-08-16T05:04:01;15.80;99.90
31542;DHT22;18152;49.986;8.646;2022-08-16T05:06:27;15.90;99.90
31542;DHT22;18152;49.986;8.646;2022-08-16T05:08:52;15.80;99.90
31542;DHT22;18152;49.986;8.646;2022-08-16T05:11:18;15.80;99.90
31542;DHT22;18152;49.986;8.646;2022-08-16T05:13:46;15.80;99.90
31542;DHT22;18152;49.986;8.646;2022-08-16T05:16:19;15.80;99.90
31542;DHT22;18152;49.986;8.646;2022-08-16T05:18:46;15.90;99.90
31542;DHT22;18152;49.986;8.646;2022-08-16T05:21:12;15.90;99.90
31542;DHT22;18152;49.986;8.646;2022-08-16T05:23:38;16.00;99.90
31542;DHT22;18152;49.986;8.646;2022-08-16T05:26:04;16.00;99.90
31542;DHT22;18152;49.986;8.646;2022-08-16T05:28:30;16.10;99.90
31542;DHT22;18152;49.986;8.646;2022-08-16T05:30:55;16.20;99.90
31542;DHT22;18152;49.986;8.646;2022-08-16T05:33:21;16.20;99.90
31542;DHT22;18152;49.986;8.646;2022-08-16T05:35:49;16.30;99.90
31542;DHT22;18152;49.986;8.646;2022-08-16T05:38:14;16.40;99.90
31542;DHT22;18152;49.986;8.646;2022-08-16T05:40:40;16.50;99.90
31542;DHT22;18152;49.986;8.646;2022-08-16T05:43:06;16.60;99.90
31542;DHT22;18152;49.986;8.646;2022-08-16T05:45:32;16.70;99.90
31542;DHT22;18152;49.986;8.646;2022-08-16T05:47:58;16.80;99.90
31542;DHT22;18152;49.986;8.646;2022-08-16T05:50:24;16.90;99.90
31542;DHT22;18152;49.986;8.646;2022-08-16T05:52:49;17.00;99.90
31542;DHT22;18152;49.986;8.646;2022-08-16T05:55:15;17.10;99.90
31542;DHT22;18152;49.986;8.646;2022-08-16T05:57:41;17.20;99.90
31542;DHT22;18152;49.986;8.646;2022-08-16T06:00:08;17.30;99.90
31542;DHT22;18152;49.986;8.646;2022-08-16T06:02:36;17.40;99.90
31542;DHT22;18152;49.986;8.646;2022-08-16T06:05:04;17.50;99.90
31542;DHT22;18152;49.986;8.646;2022-08-16T06:07:29;17.70;99.90
31542;DHT22;18152;49.986;8.646;2022-08-16T06:09:55;17.80;99.90
31542;DHT22;18152;49.986;8.646;2022-08-16T06:12:24;17.80;99.90
31542;DHT22;18152;49.986;8.646;2022-08-16T06:14:49;18.00;99.90
31542;DHT22;18152;49.986;8.646;2022-08-16T06:17:15;18.10;99.90
31542;DHT22;18152;49.986;8.646;2022-08-16T06:19:43;18.20;99.90
31542;DHT22;18152;49.986;8.646;2022-08-16T06:22:09;18.40;99.90
31542;DHT22;18152;49.986;8.646;2022-08-16T06:24:36;18.60;99.90
31542;DHT22;18152;49.986;8.646;2022-08-16T06:27:01;18.70;99.90
31542;DHT22;18152;49.986;8.646;2022-08-16T06:29:27;19.20;99.90
31542;DHT22;18152;49.986;8.646;2022-08-16T06:31:53;19.60;99.90
31542;DHT22;18152;49.986;8.646;2022-08-16T06:34:18;20.00;99.90
31542;DHT22;18152;49.986;8.646;2022-08-16T06:36:44;20.40;99.90
31542;DHT22;18152;49.986;8.646;2022-08-16T06:39:10;20.80;99.90
31542;DHT22;18152;49.986;8.646;2022-08-16T06:41:35;20.80;99.90
31542;DHT22;18152;49.986;8.646;2022-08-16T06:44:01;21.00;99.90
31542;DHT22;18152;49.986;8.646;2022-08-16T06:46:33;21.20;99.90
31542;DHT22;18152;49.986;8.646;2022-08-16T06:49:00;21.40;99.90
31542;DHT22;18152;49.986;8.646;2022-08-16T06:51:26;22.10;99.90
31542;DHT22;18152;49.986;8.646;2022-08-16T06:53:52;22.40;99.90
31542;DHT22;18152;49.986;8.646;2022-08-16T06:56:18;22.50;99.90
31542;DHT22;18152;49.986;8.646;2022-08-16T06:58:43;22.60;99.90
31542;DHT22;18152;49.986;8.646;2022-08-16T07:01:09;22.50;99.90
31542;DHT22;18152;49.986;8.646;2022-08-16T07:03:35;22.20;99.90
31542;DHT22;18152;49.986;8.646;2022-08-16T07:06:01;22.00;99.90
31542;DHT22;18152;49.986;8.646;2022-08-16T07:08:27;22.00;99.90
31542;DHT22;18152;49.986;8.646;2022-08-16T07:10:52;21.90;99.90
31542;DHT22;18152;49.986;8.646;2022-08-16T07:13:19;22.20;99.90
31542;DHT22;18152;49.986;8.646;2022-08-16T07:15:45;21.80;99.90
31542;DHT22;18152;49.986;8.646;2022-08-16T07:18:11;22.00;99.90
31542;DHT22;18152;49.986;8.646;2022-08-16T07:20:39;22.20;99.90
31542;DHT22;18152;49.986;8.646;2022-08-16T07:23:08;22.40;99.90
31542;DHT22;18152;49.986;8.646;2022-08-16T07:25:34;22.20;99.90
31542;DHT22;18152;49.986;8.646;2022-08-16T07:28:00;22.20;99.90
31542;DHT22;18152;49.986;8.646;2022-08-16T07:30:26;22.50;99.90
31542;DHT22;18152;49.986;8.646;2022-08-16T07:32:52;22.50;99.90
31542;DHT22;18152;49.986;8.646;2022-08-16T07:35:18;22.50;99.90
31542;DHT22;18152;49.986;8.646;2022-08-16T07:37:44;22.50;99.90
31542;DHT22;18152;49.986;8.646;2022-08-16T07:40:10;22.70;99.90
31542;DHT22;18152;49.986;8.646;2022-08-16T07:42:36;22.60;99.90
31542;DHT22;18152;49.986;8.646;2022-08-16T07:45:03;22.90;99.90
31542;DHT22;18152;49.986;8.646;2022-08-16T07:47:29;23.20;99.90
31542;DHT22;18152;49.986;8.646;2022-08-16T07:49:55;23.40;99.90
31542;DHT22;18152;49.986;8.646;2022-08-16T07:52:21;23.20;99.90
31542;DHT22;18152;49.986;8.646;2022-08-16T07:54:47;23.40;99.90
31542;DHT22;18152;49.986;8.646;2022-08-16T07:57:13;23.50;99.90
31542;DHT22;18152;49.986;8.646;2022-08-16T07:59:38;23.60;99.90
31542;DHT22;18152;49.986;8.646;2022-08-16T08:02:04;23.80;99.90
31542;DHT22;18152;49.986;8.646;2022-08-16T08:04:30;24.00;99.90
31542;DHT22;18152;49.986;8.646;2022-08-16T08:06:59;24.00;99.90
31542;DHT22;18152;49.986;8.646;2022-08-16T08:09:24;24.00;99.90
31542;DHT22;18152;49.986;8.646;2022-08-16T08:11:50;23.80;99.90
31542;DHT22;18152;49.986;8.646;2022-08-16T08:14:16;24.00;99.90
31542;DHT22;18152;49.986;8.646;2022-08-16T08:16:42;24.20;99.90
31542;DHT22;18152;49.986;8.646;2022-08-16T08:19:08;24.40;99.90
31542;DHT22;18152;49.986;8.646;2022-08-16T08:21:38;24.20;99.90
31542;DHT22;18152;49.986;8.646;2022-08-16T08:24:06;24.40;99.90
31542;DHT22;18152;49.986;8.646;2022-08-16T08:26:32;24.70;99.90
31542;DHT22;18152;49.986;8.646;2022-08-16T08:28:59;24.60;99.90
31542;DHT22;18152;49.986;8.646;2022-08-16T08:31:25;24.90;99.90
31542;DHT22;18152;49.986;8.646;2022-08-16T08:33:51;25.00;99.90
31542;DHT22;18152;49.986;8.646;2022-08-16T08:36:29;25.10;99.90
31542;DHT22;18152;49.986;8.646;2022-08-16T08:38:56;25.00;99.90
31542;DHT22;18152;49.986;8.646;2022-08-16T08:41:22;24.90;99.90
31542;DHT22;18152;49.986;8.646;2022-08-16T08:43:48;25.10;99.90
31542;DHT22;18152;49.986;8.646;2022-08-16T08:46:14;25.10;99.90
31542;DHT22;18152;49.986;8.646;2022-08-16T08:48:40;25.30;99.90
31542;DHT22;18152;49.986;8.646;2022-08-16T08:51:07;25.40;99.90
31542;DHT22;18152;49.986;8.646;2022-08-16T08:53:34;25.60;99.90
31542;DHT22;18152;49.986;8.646;2022-08-16T08:56:02;25.70;99.90
31542;DHT22;18152;49.986;8.646;2022-08-16T08:58:27;26.00;99.90
31542;DHT22;18152;49.986;8.646;2022-08-16T09:00:53;25.80;99.90
31542;DHT22;18152;49.986;8.646;2022-08-16T09:03:20;25.70;99.70
31542;DHT22;18152;49.986;8.646;2022-08-16T09:05:46;26.00;99.90
31542;DHT22;18152;49.986;8.646;2022-08-16T09:08:12;25.90;99.90
31542;DHT22;18152;49.986;8.646;2022-08-16T09:10:38;26.20;99.90
31542;DHT22;18152;49.986;8.646;2022-08-16T09:13:04;26.20;99.90
31542;DHT22;18152;49.986;8.646;2022-08-16T09:15:30;26.30;99.90
31542;DHT22;18152;49.986;8.646;2022-08-16T09:17:56;26.30;97.00
31542;DHT22;18152;49.986;8.646;2022-08-16T09:20:23;26.20;99.90
31542;DHT22;18152;49.986;8.646;2022-08-16T09:22:50;26.50;97.30
31542;DHT22;18152;49.986;8.646;2022-08-16T09:25:16;26.50;99.90
31542;DHT22;18152;49.986;8.646;2022-08-16T09:27:42;26.30;95.20
31542;DHT22;18152;49.986;8.646;2022-08-16T09:30:08;26.40;99.90
31542;DHT22;18152;49.986;8.646;2022-08-16T09:32:34;26.40;96.30
31542;DHT22;18152;49.986;8.646;2022-08-16T09:35:01;26.50;95.70
31542;DHT22;18152;49.986;8.646;2022-08-16T09:37:28;26.60;94.60
31542;DHT22;18152;49.986;8.646;2022-08-16T09:39:55;26.60;96.90
31542;DHT22;18152;49.986;8.646;2022-08-16T09:42:21;26.90;96.20
31542;DHT22;18152;49.986;8.646;2022-08-16T09:44:46;26.40;97.60
31542;DHT22;18152;49.986;8.646;2022-08-16T09:47:12;26.10;96.50
31542;DHT22;18152;49.986;8.646;2022-08-16T09:49:38;25.80;96.50
31542;DHT22;18152;49.986;8.646;2022-08-16T09:52:04;26.20;99.90
31542;DHT22;18152;49.986;8.646;2022-08-16T09:54:29;26.60;98.80
31542;DHT22;18152;49.986;8.646;2022-08-16T09:56:55;27.00;97.70
31542;DHT22;18152;49.986;8.646;2022-08-16T09:59:23;27.10;97.00
31542;DHT22;18152;49.986;8.646;2022-08-16T10:01:49;27.40;93.50
31542;DHT22;18152;49.986;8.646;2022-08-16T10:04:16;27.70;95.80
31542;DHT22;18152;49.986;8.646;2022-08-16T10:06:42;27.80;95.30
31542;DHT22;18152;49.986;8.646;2022-08-16T10:09:09;27.30;93.10
31542;DHT22;18152;49.986;8.646;2022-08-16T10:11:36;27.60;94.60
31542;DHT22;18152;49.986;8.646;2022-08-16T10:14:21;27.70;95.20
31542;DHT22;18152;49.986;8.646;2022-08-16T10:16:47;27.80;96.20
31542;DHT22;18152;49.986;8.646;2022-08-16T10:19:13;28.20;95.70
31542;DHT22;18152;49.986;8.646;2022-08-16T10:21:40;28.00;95.40
31542;DHT22;18152;49.986;8.646;2022-08-16T10:24:06;28.00;92.90
31542;DHT22;18152;49.986;8.646;2022-08-16T10:26:34;28.10;91.80
31542;DHT22;18152;49.986;8.646;2022-08-16T10:29:00;28.10;93.60
31542;DHT22;18152;49.986;8.646;2022-08-16T10:31:26;28.10;92.70
31542;DHT22;18152;49.986;8.646;2022-08-16T10:33:52;28.00;92.30
31542;DHT22;18152;49.986;8.646;2022-08-16T10:36:19;28.00;93.20
31542;DHT22;18152;49.986;8.646;2022-08-16T10:38:45;28.00;93.00
31542;DHT22;18152;49.986;8.646;2022-08-16T10:41:11;28.10;92.70
31542;DHT22;18152;49.986;8.646;2022-08-16T10:43:39;28.30;86.00
31542;DHT22;18152;49.986;8.646;2022-08-16T10:46:07;28.30;91.80
31542;DHT22;18152;49.986;8.646;2022-08-16T10:48:33;28.30;92.50
31542;DHT22;18152;49.986;8.646;2022-08-16T10:50:59;28.40;91.40
31542;DHT22;18152;49.986;8.646;2022-08-16T10:53:27;28.60;92.80
31542;DHT22;18152;49.986;8.646;2022-08-16T10:55:53;27.80;86.90
31542;DHT22;18152;49.986;8.646;2022-08-16T10:58:18;27.80;92.10
31542;DHT22;18152;49.986;8.646;2022-08-16T11:00:45;27.80;89.00
31542;DHT22;18152;49.986;8.646;2022-08-16T11:03:11;28.00;91.30
31542;DHT22;18152;49.986;8.646;2022-08-16T11:05:38;28.20;89.70
31542;DHT22;18152;49.986;8.646;2022-08-16T11:08:06;28.20;92.40
31542;DHT22;18152;49.986;8.646;2022-08-16T11:10:36;28.40;92.60
31542;DHT22;18152;49.986;8.646;2022-08-16T11:13:03;28.30;90.00
31542;DHT22;18152;49.986;8.646;2022-08-16T11:15:31;28.10;93.90
31542;DHT22;18152;49.986;8.646;2022-08-16T11:17:57;27.70;85.20
31542;DHT22;18152;49.986;8.646;2022-08-16T11:20:23;26.70;96.30
31542;DHT22;18152;49.986;8.646;2022-08-16T11:22:49;26.20;94.70
31542;DHT22;18152;49.986;8.646;2022-08-16T11:25:18;26.90;93.60
31542;DHT22;18152;49.986;8.646;2022-08-16T11:27:45;27.30;92.60
31542;DHT22;18152;49.986;8.646;2022-08-16T11:30:12;27.40;93.70
31542;DHT22;18152;49.986;8.646;2022-08-16T11:32:39;27.70;88.80
31542;DHT22;18152;49.986;8.646;2022-08-16T11:35:11;27.60;88.30
31542;DHT22;18152;49.986;8.646;2022-08-16T11:37:37;27.30;87.40
31542;DHT22;18152;49.986;8.646;2022-08-16T11:40:05;26.80;86.80
31542;DHT22;18152;49.986;8.646;2022-08-16T11:42:31;27.10;95.80
31542;DHT22;18152;49.986;8.646;2022-08-16T11:44:57;27.40;94.00
31542;DHT22;18152;49.986;8.646;2022-08-16T11:47:22;27.80;92.00
31542;DHT22;18152;49.986;8.646;2022-08-16T11:49:48;28.00;93.40
31542;DHT22;18152;49.986;8.646;2022-08-16T11:52:14;28.30;85.50
31542;DHT22;18152;49.986;8.646;2022-08-16T11:54:42;28.60;92.10
31542;DHT22;18152;49.986;8.646;2022-08-16T11:57:08;28.30;88.90
31542;DHT22;18152;49.986;8.646;2022-08-16T11:59:33;28.40;92.50
31542;DHT22;18152;49.986;8.646;2022-08-16T12:02:00;28.10;89.10
31542;DHT22;18152;49.986;8.646;2022-08-16T12:04:26;27.70;90.70
31542;DHT22;18152;49.986;8.646;2022-08-16T12:06:52;28.00;91.70
31542;DHT22;18152;49.986;8.646;2022-08-16T12:09:18;27.80;90.70
31542;DHT22;18152;49.986;8.646;2022-08-16T12:11:44;28.00;87.40
31542;DHT22;18152;49.986;8.646;2022-08-16T12:14:09;27.90;82.30
31542;DHT22;18152;49.986;8.646;2022-08-16T12:16:36;27.40;83.60
31542;DHT22;18152;49.986;8.646;2022-08-16T12:19:06;27.60;90.60
31542;DHT22;18152;49.986;8.646;2022-08-16T12:21:33;28.00;95.40
31542;DHT22;18152;49.986;8.646;2022-08-16T12:23:58;28.50;85.60
31542;DHT22;18152;49.986;8.646;2022-08-16T12:26:24;28.40;82.30
31542;DHT22;18152;49.986;8.646;2022-08-16T12:28:50;28.40;77.50
31542;DHT22;18152;49.986;8.646;2022-08-16T12:31:18;28.40;82.40
31542;DHT22;18152;49.986;8.646;2022-08-16T12:33:44;28.70;91.90
31542;DHT22;18152;49.986;8.646;2022-08-16T12:36:11;28.60;89.10
31542;DHT22;18152;49.986;8.646;2022-08-16T12:38:36;28.60;83.60
31542;DHT22;18152;49.986;8.646;2022-08-16T12:41:02;28.90;88.40
31542;DHT22;18152;49.986;8.646;2022-08-16T12:43:29;28.60;87.80
31542;DHT22;18152;49.986;8.646;2022-08-16T12:45:55;28.90;82.80
31542;DHT22;18152;49.986;8.646;2022-08-16T12:48:29;28.90;79.30
31542;DHT22;18152;49.986;8.646;2022-08-16T12:51:16;28.90;81.60
31542;DHT22;18152;49.986;8.646;2022-08-16T12:53:43;28.90;87.30
31542;DHT22;18152;49.986;8.646;2022-08-16T12:56:10;28.80;81.10
31542;DHT22;18152;49.986;8.646;2022-08-16T12:58:40;28.80;75.80
31542;DHT22;18152;49.986;8.646;2022-08-16T13:01:07;28.70;82.00
31542;DHT22;18152;49.986;8.646;2022-08-16T13:03:33;28.90;90.20
31542;DHT22;18152;49.986;8.646;2022-08-16T13:05:59;28.60;87.70
31542;DHT22;18152;49.986;8.646;2022-08-16T13:08:24;28.40;79.70
31542;DHT22;18152;49.986;8.646;2022-08-16T13:10:50;28.50;88.70
31542;DHT22;18152;49.986;8.646;2022-08-16T13:13:21;28.50;85.10
31542;DHT22;18152;49.986;8.646;2022-08-16T13:15:55;28.50;78.40
31542;DHT22;18152;49.986;8.646;2022-08-16T13:18:22;28.40;82.10
31542;DHT22;18152;49.986;8.646;2022-08-16T13:20:49;28.40;76.00
31542;DHT22;18152;49.986;8.646;2022-08-16T13:23:15;28.50;89.70
31542;DHT22;18152;49.986;8.646;2022-08-16T13:25:44;28.60;79.80
31542;DHT22;18152;49.986;8.646;2022-08-16T13:28:10;28.80;79.50
31542;DHT22;18152;49.986;8.646;2022-08-16T13:30:40;28.60;84.40
31542;DHT22;18152;49.986;8.646;2022-08-16T13:33:07;28.50;75.30
31542;DHT22;18152;49.986;8.646;2022-08-16T13:35:34;28.30;69.30
31542;DHT22;18152;49.986;8.646;2022-08-16T13:37:59;28.50;72.00
31542;DHT22;18152;49.986;8.646;2022-08-16T13:40:25;28.50;74.00
31542;DHT22;18152;49.986;8.646;2022-08-16T13:42:52;28.70;81.40
31542;DHT22;18152;49.986;8.646;2022-08-16T13:45:18;28.60;82.20
31542;DHT22;18152;49.986;8.646;2022-08-16T13:47:44;28.50;83.40
31542;DHT22;18152;49.986;8.646;2022-08-16T13:50:10;28.50;76.30
31542;DHT22;18152;49.986;8.646;2022-08-16T13:52:38;28.30;82.40
31542;DHT22;18152;49.986;8.646;2022-08-16T13:55:04;28.30;85.00
31542;DHT22;18152;49.986;8.646;2022-08-16T13:57:30;28.60;75.40
31542;DHT22;18152;49.986;8.646;2022-08-16T13:59:55;28.60;80.90
31542;DHT22;18152;49.986;8.646;2022-08-16T14:02:21;28.30;80.00
31542;DHT22;18152;49.986;8.646;2022-08-16T14:04:46;28.10;79.30
31542;DHT22;18152;49.986;8.646;2022-08-16T14:07:14;28.10;71.40
31542;DHT22;18152;49.986;8.646;2022-08-16T14:09:40;28.20;67.30
31542;DHT22;18152;49.986;8.646;2022-08-16T14:12:23;28.30;69.90
31542;DHT22;18152;49.986;8.646;2022-08-16T14:14:50;28.20;76.70
31542;DHT22;18152;49.986;8.646;2022-08-16T14:17:17;28.20;83.50
31542;DHT22;18152;49.986;8.646;2022-08-16T14:19:43;28.10;71.00
31542;DHT22;18152;49.986;8.646;2022-08-16T14:22:13;28.20;77.30
31542;DHT22;18152;49.986;8.646;2022-08-16T14:24:39;27.80;79.90
31542;DHT22;18152;49.986;8.646;2022-08-16T14:27:05;27.90;85.90
31542;DHT22;18152;49.986;8.646;2022-08-16T14:29:31;27.90;72.10
31542;DHT22;18152;49.986;8.646;2022-08-16T14:32:03;27.80;75.70
31542;DHT22;18152;49.986;8.646;2022-08-16T14:34:29;27.90;69.20
31542;DHT22;18152;49.986;8.646;2022-08-16T14:36:55;28.00;70.70
31542;DHT22;18152;49.986;8.646;2022-08-16T14:39:20;27.80;68.90
31542;DHT22;18152;49.986;8.646;2022-08-16T14:41:48;27.70;68.30
31542;DHT22;18152;49.986;8.646;2022-08-16T14:44:14;27.80;67.60
31542;DHT22;18152;49.986;8.646;2022-08-16T14:46:40;27.80;64.90
31542;DHT22;18152;49.986;8.646;2022-08-16T14:49:05;27.80;65.70
31542;DHT22;18152;49.986;8.646;2022-08-16T14:51:31;27.80;68.30
31542;DHT22;18152;49.986;8.646;2022-08-16T14:53:56;27.70;62.20
31542;DHT22;18152;49.986;8.646;2022-08-16T14:56:25;27.70;62.80
31542;DHT22;18152;49.986;8.646;2022-08-16T14:58:51;27.70;71.80
31542;DHT22;18152;49.986;8.646;2022-08-16T15:01:16;27.60;67.20
31542;DHT22;18152;49.986;8.646;2022-08-16T15:03:42;27.60;72.40
31542;DHT22;18152;49.986;8.646;2022-08-16T15:06:08;27.30;74.30
31542;DHT22;18152;49.986;8.646;2022-08-16T15:08:33;27.20;69.60
31542;DHT22;18152;49.986;8.646;2022-08-16T15:10:59;27.30;64.40
31542;DHT22;18152;49.986;8.646;2022-08-16T15:13:24;27.50;66.60
31542;DHT22;18152;49.986;8.646;2022-08-16T15:15:50;27.50;72.00
31542;DHT22;18152;49.986;8.646;2022-08-16T15:18:17;27.50;65.20
31542;DHT22;18152;49.986;8.646;2022-08-16T15:20:43;27.60;67.10
31542;DHT22;18152;49.986;8.646;2022-08-16T15:23:09;27.40;65.40
31542;DHT22;18152;49.986;8.646;2022-08-16T15:25:41;27.40;62.20
31542;DHT22;18152;49.986;8.646;2022-08-16T15:28:09;27.30;62.10
31542;DHT22;18152;49.986;8.646;2022-08-16T15:30:35;27.50;61.10